University, Washington
Current Conditions -  °F | °C
As of 4:53 AM on Tuesday 21 Oct 2014 (Local Time) from KBFI Reporting Station
Overcast Overcast  
Wind Chill: 56°   Ceiling: 6000
Heat Index: 56°   Visibility: 10mi
Dew Point: 51°   Wind: 6mph
Humidity: 84%   Direction: 150°SSE
Pressure: 29.84"   Gusts: NA
Location:  47.6619°N, 122.296°W
Report Text: KBFI 211153Z 15005KT 10SM FEW048 BKN060 OVC070 13/11 A2984 RMK AO2 RAE46 SLP103 P0002 60007 70030 T01330106 10144 20128 53004
Loading
Personal Weather Stations






























Interactive Weather Map
Tropical Storm Tracking
New forecast layout! Learn more

10-Day Weather Forecast

Advertisements
Track Severe Weather on mobile